Terminal Aerodrome Forecast
Issued by NWS

Home | Current Version | Previous Version | Text Only | Print | Product List | Glossary On
Versions: 1 2 3 4 5 6 7 8 9 10 11 12 13 14 15 16 17 18 19 20 21 22 23 24 25 26 27
000
FTUS41 KBUF 221135
TAFIAG
TAF
KIAG 221135Z 2212/2312 19005KT P6SM FEW250
     FM221700 20009KT P6SM SCT050 BKN080
     FM221900 21010G20KT P6SM SCT045 BKN110
     FM230200 19011KT P6SM VCSH SCT035 BKN080 WS020/23040KT
     FM230900 22009KT P6SM VCSH SCT012 OVC045
     FM231100 21011G17KT P6SM VCSH SCT012 OVC030=

USA.gov is the U.S. government's official web portal to all federal, state and local government web resources and services.